Time;durP1;ratioP1;P1;durP2;ratioP2;P2;SDS_P1;SDS_P2;PMS_P1;PMS_P2;Temp;Humidity;BMP_temperature;BMP_pressure;BME280_temperature;BME280_humidity;BME280_pressure;Samples;Min_cycle;Max_cycle;Signal;HPM_P1;HPM_P2
2024/04/18 00:00:11;;;;;;;17.05;7.43;;;;;;;4.20;100.00;101470.72;5631680;26;20467;-72
2024/04/18 00:02:41;;;;;;;12.68;7.35;;;;;;;4.21;100.00;101475.91;5632822;26;20017;-71
2024/04/18 00:05:13;;;;;;;15.07;8.45;;;;;;;4.24;100.00;101467.75;5628143;26;19994;-71
2024/04/18 00:07:43;;;;;;;18.10;9.48;;;;;;;4.28;100.00;101469.22;5633119;26;20003;-71
2024/04/18 00:10:14;;;;;;;18.90;9.20;;;;;;;4.35;100.00;101475.78;5632104;26;20033;-71
2024/04/18 00:12:45;;;;;;;20.77;9.48;;;;;;;4.41;100.00;101472.66;5632783;26;19995;-71
2024/04/18 00:15:16;;;;;;;17.52;8.93;;;;;;;4.50;100.00;101468.50;5633341;26;19999;-71
2024/04/18 00:17:46;;;;;;;24.02;9.60;;;;;;;4.60;100.00;101468.69;5637168;26;19994;-72
2024/04/18 00:20:18;;;;;;;18.80;8.93;;;;;;;4.66;100.00;101471.72;5635250;26;20005;-72
2024/04/18 00:22:48;;;;;;;18.70;9.15;;;;;;;4.77;100.00;101470.97;5634663;26;20018;-72
2024/04/18 00:25:19;;;;;;;16.58;8.43;;;;;;;4.86;100.00;101464.94;5636942;26;19995;-72
2024/04/18 00:27:49;;;;;;;22.25;9.73;;;;;;;4.96;100.00;101464.25;5636220;26;20006;-72
2024/04/18 00:30:20;;;;;;;16.13;9.15;;;;;;;5.05;100.00;101469.72;5638333;26;20003;-72
2024/04/18 00:32:50;;;;;;;20.30;10.32;;;;;;;5.13;100.00;101477.16;5636503;26;20051;-73
2024/04/18 00:35:21;;;;;;;22.95;9.48;;;;;;;5.17;100.00;101474.16;5634064;26;20002;-72
2024/04/18 00:37:52;;;;;;;17.25;8.88;;;;;;;5.19;100.00;101472.19;5636660;26;20008;-72
2024/04/18 00:40:22;;;;;;;17.23;8.70;;;;;;;5.18;100.00;101475.84;5634479;26;20699;-72
2024/04/18 00:42:52;;;;;;;20.13;9.75;;;;;;;5.17;100.00;101478.59;5636573;26;20002;-72
2024/04/18 00:45:23;;;;;;;18.80;9.13;;;;;;;5.14;100.00;101479.69;5636115;26;20005;-72
2024/04/18 00:47:54;;;;;;;15.27;8.70;;;;;;;5.08;100.00;101479.31;5636416;26;20013;-71
2024/04/18 00:50:25;;;;;;;20.80;9.02;;;;;;;5.00;100.00;101481.69;5634312;26;21954;-71
2024/04/18 00:52:56;;;;;;;17.10;8.70;;;;;;;4.93;100.00;101483.97;5635829;26;19999;-71
2024/04/18 00:55:29;;;;;;;17.95;8.93;;;;;;;4.84;100.00;101482.81;5634938;26;20007;-71
2024/04/18 00:57:59;;;;;;;18.20;8.57;;;;;;;4.75;100.00;101480.84;5635611;26;20002;-71
2024/04/18 01:00:30;;;;;;;15.98;8.55;;;;;;;4.67;100.00;101483.22;5635218;26;20003;-71
2024/04/18 01:03:00;;;;;;;18.52;8.55;;;;;;;4.62;100.00;101490.69;5637483;26;19995;-71
2024/04/18 01:05:32;;;;;;;19.98;9.43;;;;;;;4.57;100.00;101493.69;5637639;26;19999;-71
2024/04/18 01:08:03;;;;;;;20.35;10.27;;;;;;;4.52;100.00;101498.50;5636824;26;19999;-71
2024/04/18 01:10:34;;;;;;;18.77;10.18;;;;;;;4.49;100.00;101500.50;5633819;26;20333;-72
2024/04/18 01:13:04;;;;;;;25.85;9.82;;;;;;;4.51;100.00;101495.91;5636848;26;20040;-71
2024/04/18 01:15:35;;;;;;;16.95;9.82;;;;;;;4.57;100.00;101500.81;5636245;26;20003;-71
2024/04/18 01:18:06;;;;;;;27.85;10.80;;;;;;;4.62;100.00;101504.81;5637349;26;19995;-72
2024/04/18 01:20:37;;;;;;;21.80;10.15;;;;;;;4.62;100.00;101502.16;5634899;26;20014;-71
2024/04/18 01:23:08;;;;;;;19.95;10.10;;;;;;;4.63;100.00;101508.34;5636968;26;20068;-72
2024/04/18 01:25:38;;;;;;;22.77;9.90;;;;;;;4.58;100.00;101513.13;5636562;26;20007;-72
2024/04/18 01:28:09;;;;;;;20.90;10.07;;;;;;;4.51;100.00;101512.72;5635022;26;20018;-72
2024/04/18 01:30:41;;;;;;;16.85;8.80;;;;;;;4.46;100.00;101519.31;5633399;26;19995;-72
2024/04/18 01:33:11;;;;;;;22.83;8.85;;;;;;;4.41;100.00;101517.81;5628559;26;20006;-71
2024/04/18 01:35:42;;;;;;;23.42;11.00;;;;;;;4.40;100.00;101521.44;5636750;26;20009;-72
2024/04/18 01:38:12;;;;;;;21.73;9.93;;;;;;;4.38;100.00;101523.38;5636619;26;19999;-72
2024/04/18 01:40:43;;;;;;;21.50;9.60;;;;;;;4.41;100.00;101527.63;5635003;26;19995;-71
2024/04/18 01:43:14;;;;;;;22.05;9.90;;;;;;;4.43;100.00;101527.53;5636519;26;20022;-71
2024/04/18 01:45:44;;;;;;;22.40;11.10;;;;;;;4.39;100.00;101525.06;5636575;26;20008;-71
2024/04/18 01:48:14;;;;;;;22.95;10.65;;;;;;;4.41;100.00;101531.13;5636636;26;20422;-72
2024/04/18 01:50:45;;;;;;;23.05;10.70;;;;;;;4.45;100.00;101537.06;5634189;26;19995;-71
2024/04/18 01:53:16;;;;;;;35.08;12.93;;;;;;;4.47;100.00;101542.25;5635961;26;20011;-71
2024/04/18 01:55:46;;;;;;;19.30;10.57;;;;;;;4.47;100.00;101536.94;5634783;26;20010;-72
2024/04/18 01:58:17;;;;;;;19.83;10.63;;;;;;;4.47;100.00;101535.16;5636172;26;19999;-72
2024/04/18 02:00:48;;;;;;;22.77;11.20;;;;;;;4.48;100.00;101538.66;5634956;26;19995;-71
2024/04/18 02:03:19;;;;;;;24.02;12.02;;;;;;;4.48;100.00;101544.84;5635861;26;20017;-71
2024/04/18 02:05:50;;;;;;;23.50;11.98;;;;;;;4.51;100.00;101546.41;5636542;26;19999;-71
2024/04/18 02:08:22;;;;;;;26.00;12.57;;;;;;;4.54;100.00;101544.38;5636001;26;19998;-71
2024/04/18 02:10:53;;;;;;;24.77;11.73;;;;;;;4.60;100.00;101546.59;5634424;26;20067;-71
2024/04/18 02:13:24;;;;;;;23.85;11.95;;;;;;;4.73;100.00;101554.53;5636532;26;20011;-71
2024/04/18 02:15:54;;;;;;;32.28;15.02;;;;;;;4.88;100.00;101552.59;5635731;26;19995;-71
2024/04/18 02:18:26;;;;;;;31.55;14.88;;;;;;;4.97;100.00;101554.56;5636208;26;20083;-72
2024/04/18 02:20:56;;;;;;;30.15;13.38;;;;;;;5.06;100.00;101567.16;5631909;26;19999;-72
2024/04/18 02:23:31;;;;;;;39.70;15.13;;;;;;;5.19;100.00;101559.97;5634473;26;20014;-72
2024/04/18 02:26:01;;;;;;;42.22;16.70;;;;;;;5.32;100.00;101572.34;5635582;26;20365;-71
2024/04/18 02:28:32;;;;;;;37.92;16.27;;;;;;;5.41;100.00;101569.84;5635431;26;19998;-72
2024/04/18 02:31:04;;;;;;;33.60;15.77;;;;;;;5.55;100.00;101568.81;5634083;26;20010;-71
2024/04/18 02:33:35;;;;;;;41.78;16.20;;;;;;;5.61;100.00;101568.34;5633437;26;20440;-72
2024/04/18 02:36:06;;;;;;;33.08;15.35;;;;;;;5.70;100.00;101574.81;5635828;26;20014;-72
2024/04/18 02:38:38;;;;;;;32.10;15.15;;;;;;;5.77;100.00;101570.69;5635416;26;19991;-72
2024/04/18 02:41:23;;;;;;;32.22;14.77;;;;;;;5.83;100.00;101572.91;5632453;26;20010;-72
2024/04/18 02:43:54;;;;;;;26.73;14.02;;;;;;;5.89;100.00;101576.91;5635785;26;20013;-72
2024/04/18 02:46:25;;;;;;;28.23;13.43;;;;;;;5.89;100.00;101583.09;5635241;26;20022;-72
2024/04/18 02:48:56;;;;;;;25.27;13.07;;;;;;;5.90;100.00;101576.78;5635065;26;20499;-72
2024/04/18 02:51:26;;;;;;;27.63;13.52;;;;;;;5.91;100.00;101581.16;5632776;26;20011;-72
2024/04/18 02:53:57;;;;;;;24.85;13.55;;;;;;;5.94;100.00;101582.75;5635833;26;20665;-72
2024/04/18 02:56:27;;;;;;;29.45;13.80;;;;;;;5.98;100.00;101584.22;5634884;26;20006;-72
2024/04/18 02:58:58;;;;;;;28.77;13.48;;;;;;;5.96;100.00;101587.00;5634726;26;20044;-72
2024/04/18 03:01:28;;;;;;;29.48;13.65;;;;;;;5.99;100.00;101590.41;5633574;26;20473;-72
2024/04/18 03:03:59;;;;;;;28.10;13.30;;;;;;;5.98;100.00;101592.22;5635304;26;20325;-72
2024/04/18 03:06:29;;;;;;;26.05;13.63;;;;;;;6.02;100.00;101592.81;5635441;26;20463;-74
2024/04/18 03:09:00;;;;;;;23.33;12.45;;;;;;;6.01;100.00;101593.78;5635209;26;19995;-74
2024/04/18 03:11:30;;;;;;;32.58;14.02;;;;;;;6.05;100.00;101597.91;5633636;26;20007;-74
2024/04/18 03:14:01;;;;;;;27.45;12.98;;;;;;;6.05;100.00;101609.41;5635503;26;20013;-74
2024/04/18 03:16:32;;;;;;;33.80;13.55;;;;;;;6.08;100.00;101619.84;5634668;26;20021;-74
2024/04/18 03:19:10;;;;;;;28.58;13.20;;;;;;;6.07;100.00;101618.13;5634475;26;20007;-75
2024/04/18 03:21:41;;;;;;;26.48;12.98;;;;;;;6.09;100.00;101626.88;5626155;26;20456;-74
2024/04/18 03:24:19;;;;;;;29.77;13.25;;;;;;;6.09;100.00;101626.88;5635213;26;20031;-75
2024/04/18 03:26:51;;;;;;;29.83;13.48;;;;;;;6.11;100.00;101629.41;5635154;26;20023;-74
2024/04/18 03:29:22;;;;;;;28.27;13.40;;;;;;;6.14;100.00;101634.50;5634492;26;20321;-74
2024/04/18 03:31:52;;;;;;;30.77;13.05;;;;;;;6.17;100.00;101624.44;5633409;26;20014;-74
2024/04/18 03:34:23;;;;;;;31.58;13.02;;;;;;;6.20;100.00;101629.53;5631892;26;19994;-74
2024/04/18 03:36:54;;;;;;;29.25;13.50;;;;;;;6.19;100.00;101621.66;5634646;26;20010;-74
2024/04/18 03:39:27;;;;;;;25.92;13.32;;;;;;;6.18;100.00;101628.81;5634143;26;20013;-74
2024/04/18 03:41:58;;;;;;;27.65;13.55;;;;;;;6.17;100.00;101635.09;5632315;26;20006;-74
2024/04/18 03:44:28;;;;;;;25.85;12.95;;;;;;;6.16;100.00;101637.88;5634822;26;20007;-74
2024/04/18 03:46:59;;;;;;;29.73;13.40;;;;;;;6.16;100.00;101643.22;5634590;26;20003;-74
2024/04/18 03:49:29;;;;;;;27.38;12.52;;;;;;;6.18;100.00;101646.63;5634006;26;20010;-74
2024/04/18 03:52:00;;;;;;;33.30;14.30;;;;;;;6.16;100.00;101653.88;5636337;26;19999;-75
2024/04/18 03:54:30;;;;;;;33.47;14.20;;;;;;;6.17;100.00;101652.91;5638270;26;20007;-74
2024/04/18 03:57:01;;;;;;;26.38;13.68;;;;;;;6.14;100.00;101659.31;5637030;26;20021;-75
2024/04/18 03:59:31;;;;;;;26.80;13.20;;;;;;;6.12;100.00;101663.06;5638001;26;20791;-74
2024/04/18 04:02:02;;;;;;;35.50;13.45;;;;;;;6.10;100.00;101657.84;5636606;26;20011;-74
2024/04/18 04:04:32;;;;;;;24.38;12.10;;;;;;;6.09;100.00;101660.66;5637622;26;19995;-74
2024/04/18 04:07:04;;;;;;;30.13;14.15;;;;;;;6.09;100.00;101666.81;5636668;26;20012;-74
2024/04/18 04:09:35;;;;;;;28.60;13.23;;;;;;;6.11;100.00;101664.88;5637371;26;20013;-75
2024/04/18 04:12:06;;;;;;;26.92;13.43;;;;;;;6.13;100.00;101670.97;5636405;26;20067;-74
2024/04/18 04:14:36;;;;;;;30.23;13.93;;;;;;;6.17;100.00;101676.88;5632590;26;20093;-74
2024/04/18 04:17:09;;;;;;;25.60;12.38;;;;;;;6.16;100.00;101680.50;5637813;26;20011;-74
2024/04/18 04:19:39;;;;;;;30.23;13.95;;;;;;;6.12;100.00;101679.88;5636887;26;20062;-74
2024/04/18 04:22:09;;;;;;;30.27;13.65;;;;;;;6.14;100.00;101679.78;5636562;26;19999;-74
2024/04/18 04:24:40;;;;;;;30.33;14.43;;;;;;;6.12;100.00;101682.56;5637689;26;20010;-74
2024/04/18 04:27:10;;;;;;;26.48;12.60;;;;;;;6.11;100.00;101688.00;5637363;26;20075;-74
2024/04/18 04:29:41;;;;;;;27.73;14.02;;;;;;;6.07;100.00;101694.53;5635137;26;20347;-74
2024/04/18 04:32:21;;;;;;;26.65;13.05;;;;;;;6.01;100.00;101697.66;5620826;26;20039;-74
2024/04/18 04:34:51;;;;;;;28.02;13.82;;;;;;;5.94;100.00;101703.47;5632646;26;20547;-74
2024/04/18 04:37:22;;;;;;;29.35;13.45;;;;;;;5.91;100.00;101708.13;5627573;26;20006;-74
2024/04/18 04:39:52;;;;;;;29.60;14.18;;;;;;;5.87;100.00;101715.53;5633329;26;19999;-74
2024/04/18 04:42:23;;;;;;;27.25;13.52;;;;;;;5.90;100.00;101711.75;5627251;26;20003;-74
2024/04/18 04:44:53;;;;;;;27.80;14.23;;;;;;;5.94;100.00;101713.28;5628693;26;20083;-75
2024/04/18 04:47:24;;;;;;;29.23;14.70;;;;;;;6.01;100.00;101727.81;5635176;26;20003;-74
2024/04/18 04:49:54;;;;;;;30.77;15.10;;;;;;;6.04;100.00;101724.09;5636953;26;20003;-74
2024/04/18 04:52:25;;;;;;;30.58;15.05;;;;;;;6.06;100.00;101738.13;5633082;26;20022;-74
2024/04/18 04:54:55;;;;;;;31.50;15.25;;;;;;;6.08;100.00;101738.88;5636805;26;20011;-74
2024/04/18 04:57:26;;;;;;;27.48;14.90;;;;;;;6.14;100.00;101731.25;5636957;26;20014;-74
2024/04/18 04:59:56;;;;;;;28.20;14.30;;;;;;;6.15;100.00;101745.44;5636667;26;20003;-74
2024/04/18 05:02:27;;;;;;;30.70;15.00;;;;;;;6.16;100.00;101757.78;5633477;26;20337;-74
2024/04/18 05:04:58;;;;;;;35.70;15.32;;;;;;;6.17;100.00;101762.13;5636975;26;20010;-74
2024/04/18 05:07:28;;;;;;;32.13;15.00;;;;;;;6.19;100.00;101766.41;5635514;26;20597;-74
2024/04/18 05:09:59;;;;;;;27.20;14.13;;;;;;;6.19;100.00;101768.22;5636642;26;19995;-74
2024/04/18 05:12:29;;;;;;;31.13;14.25;;;;;;;6.16;100.00;101771.94;5633444;26;20007;-74
2024/04/18 05:14:59;;;;;;;28.83;14.05;;;;;;;6.14;100.00;101781.88;5637135;26;20011;-74
2024/04/18 05:17:30;;;;;;;29.42;14.68;;;;;;;6.14;100.00;101786.38;5635849;26;19999;-74
2024/04/18 05:20:00;;;;;;;31.05;14.20;;;;;;;6.15;100.00;101793.38;5636751;26;20573;-74
2024/04/18 05:22:31;;;;;;;31.90;14.23;;;;;;;6.15;100.00;101791.56;5622334;26;20003;-74
2024/04/18 05:25:02;;;;;;;31.73;14.77;;;;;;;6.17;100.00;101792.28;5629066;26;20018;-74
2024/04/18 05:27:32;;;;;;;29.40;13.90;;;;;;;6.22;100.00;101798.16;5625753;26;20007;-74
2024/04/18 05:32:52;;;;;;;26.50;13.40;;;;;;;6.25;100.00;101805.06;5632983;26;20003;-74
2024/04/18 05:35:23;;;;;;;34.55;13.90;;;;;;;6.27;100.00;101799.59;5631833;26;20415;-74
2024/04/18 05:37:53;;;;;;;24.85;12.68;;;;;;;6.28;100.00;101804.00;5632766;26;20035;-74
2024/04/18 05:40:24;;;;;;;29.75;14.13;;;;;;;6.36;100.00;101812.25;5631209;26;20007;-74
2024/04/18 05:42:55;;;;;;;30.63;13.25;;;;;;;6.40;100.00;101813.72;5633392;26;20611;-74
2024/04/18 05:45:25;;;;;;;26.67;12.68;;;;;;;6.48;100.00;101820.19;5632848;26;20329;-75
2024/04/18 05:47:56;;;;;;;31.85;14.68;;;;;;;6.57;100.00;101826.59;5632526;26;20862;-74
2024/04/18 05:50:26;;;;;;;27.95;13.02;;;;;;;6.79;100.00;101828.50;5631656;26;20010;-75
2024/04/18 05:52:57;;;;;;;27.52;14.25;;;;;;;7.34;100.00;101834.03;5632505;26;20521;-75
2024/04/18 05:55:27;;;;;;;23.52;10.85;;;;;;;8.02;100.00;101841.81;5633027;26;20390;-74
2024/04/18 05:57:59;;;;;;;18.10;9.98;;;;;;;8.67;100.00;101841.84;5629467;26;20025;-74
2024/04/18 06:00:30;;;;;;;20.25;9.95;;;;;;;9.20;100.00;101845.31;5631543;26;20063;-74
2024/04/18 06:03:01;;;;;;;13.43;8.23;;;;;;;9.66;100.00;101838.56;5632934;26;20452;-74
2024/04/18 06:05:31;;;;;;;13.63;7.38;;;;;;;10.03;100.00;101848.69;5633677;26;19998;-75
2024/04/18 06:08:02;;;;;;;11.18;7.20;;;;;;;10.48;100.00;101846.34;5632310;26;20039;-75
2024/04/18 06:10:33;;;;;;;13.70;7.28;;;;;;;10.97;100.00;101847.16;5631824;26;20018;-75
2024/04/18 06:13:07;;;;;;;13.77;6.80;;;;;;;11.27;100.00;101854.16;5632023;26;20087;-75
2024/04/18 06:15:43;;;;;;;11.65;6.65;;;;;;;11.56;100.00;101866.63;5639744;26;20003;-75
2024/04/18 06:18:14;;;;;;;12.07;6.10;;;;;;;11.90;100.00;101866.94;5642025;26;20002;-75
2024/04/18 06:20:46;;;;;;;11.73;6.03;;;;;;;12.07;100.00;101871.50;5630846;26;19999;-75
2024/04/18 06:23:21;;;;;;;13.98;6.40;;;;;;;12.56;100.00;101877.38;5631003;26;20017;-75
2024/04/18 06:25:51;;;;;;;9.15;5.50;;;;;;;12.76;100.00;101877.22;5631904;26;20763;-75
2024/04/18 06:28:22;;;;;;;10.50;5.80;;;;;;;12.87;100.00;101893.97;5627325;26;20459;-75
2024/04/18 06:30:52;;;;;;;10.60;6.47;;;;;;;12.99;100.00;101891.00;5630607;26;20010;-74
2024/04/18 06:33:25;;;;;;;11.90;6.57;;;;;;;13.10;100.00;101888.06;5624806;26;20456;-73
2024/04/18 06:35:56;;;;;;;9.90;5.95;;;;;;;13.23;100.00;101893.09;5621600;26;19999;-70
2024/04/18 06:38:26;;;;;;;8.25;5.00;;;;;;;13.48;100.00;101898.47;5622539;26;20074;-71
2024/04/18 06:40:57;;;;;;;9.55;5.30;;;;;;;13.52;100.00;101907.09;5628376;26;20018;-72
2024/04/18 06:43:27;;;;;;;7.57;5.20;;;;;;;13.66;100.00;101902.94;5632297;26;20009;-72
2024/04/18 06:45:58;;;;;;;9.48;5.95;;;;;;;13.70;100.00;101902.47;5619017;26;20335;-72
2024/04/18 06:48:28;;;;;;;166.57;23.83;;;;;;;13.69;100.00;101898.06;5625188;26;20014;-72
2024/04/18 06:50:59;;;;;;;1003.55;165.98;;;;;;;13.95;100.00;101900.69;5623814;26;20025;-72
2024/04/18 06:53:29;;;;;;;440.20;61.90;;;;;;;14.11;100.00;101899.94;5630316;26;20002;-74
2024/04/18 06:56:00;;;;;;;175.13;26.13;;;;;;;14.11;100.00;101905.34;5629794;26;20078;-73
2024/04/18 06:58:30;;;;;;;46.13;10.57;;;;;;;14.19;100.00;101910.75;5626778;26;20014;-73
2024/04/18 07:01:01;;;;;;;13.07;5.63;;;;;;;14.45;100.00;101920.59;5626494;26;20025;-73
2024/04/18 07:03:32;;;;;;;17.98;6.05;;;;;;;14.55;100.00;101920.47;5631379;26;20436;-72
2024/04/18 07:06:02;;;;;;;14.00;5.57;;;;;;;14.46;100.00;101920.44;5629465;26;20003;-72
2024/04/18 07:08:35;;;;;;;11.75;4.90;;;;;;;14.75;100.00;101921.84;5626633;26;20011;-73
2024/04/18 07:11:05;;;;;;;7.55;4.05;;;;;;;14.69;100.00;101923.38;5623901;26;19999;-73
2024/04/18 07:13:36;;;;;;;8.20;4.20;;;;;;;14.72;100.00;101928.44;5625689;26;20014;-72
2024/04/18 07:16:06;;;;;;;16.95;5.40;;;;;;;14.52;100.00;101927.06;5623046;26;19999;-73
2024/04/18 07:18:37;;;;;;;8.05;4.35;;;;;;;14.86;100.00;101939.56;5627372;26;20028;-73
2024/04/18 07:21:07;;;;;;;8.40;4.13;;;;;;;14.74;100.00;101930.97;5621090;26;20010;-73
2024/04/18 07:23:38;;;;;;;10.13;4.15;;;;;;;14.84;100.00;101933.50;5630341;26;20013;-73
2024/04/18 07:26:09;;;;;;;6.15;4.20;;;;;;;15.07;100.00;101934.53;5628460;26;20076;-73
2024/04/18 07:28:39;;;;;;;12.80;4.15;;;;;;;15.11;100.00;101941.28;5624146;26;19998;-74
2024/04/18 07:31:10;;;;;;;11.45;4.15;;;;;;;15.04;100.00;101953.78;5622738;26;20014;-73
2024/04/18 07:33:40;;;;;;;10.10;4.50;;;;;;;15.41;100.00;101953.28;5629573;26;19995;-73
2024/04/18 07:36:12;;;;;;;7.88;4.07;;;;;;;15.33;100.00;101965.94;5629705;26;20412;-73
2024/04/18 07:38:42;;;;;;;10.48;4.15;;;;;;;15.38;100.00;101967.13;5617422;26;20072;-74
2024/04/18 07:41:13;;;;;;;11.13;3.95;;;;;;;15.53;100.00;101978.09;5625186;26;20374;-73
2024/04/18 07:43:43;;;;;;;11.02;4.90;;;;;;;15.45;100.00;101972.69;5630205;26;19995;-74
2024/04/18 07:46:14;;;;;;;8.57;3.67;;;;;;;15.67;100.00;101972.00;5625734;26;20010;-74
2024/04/18 07:48:46;;;;;;;8.68;3.30;;;;;;;15.75;100.00;101971.97;5623207;26;20027;-72
2024/04/18 07:51:16;;;;;;;10.45;3.50;;;;;;;15.89;100.00;101969.59;5627083;26;20424;-72
2024/04/18 07:53:47;;;;;;;11.07;3.22;;;;;;;16.13;100.00;101972.19;5631667;26;19999;-73
2024/04/18 07:56:18;;;;;;;6.97;2.55;;;;;;;16.60;100.00;101979.41;5628861;26;20013;-72
2024/04/18 07:58:49;;;;;;;5.82;2.50;;;;;;;16.96;100.00;101987.00;5627688;26;19999;-72
2024/04/18 08:01:19;;;;;;;9.32;2.92;;;;;;;16.65;100.00;101977.00;5627306;26;20448;-71
2024/04/18 08:03:50;;;;;;;5.18;2.17;;;;;;;16.86;100.00;101984.50;5629950;26;19998;-71
2024/04/18 08:06:20;;;;;;;5.63;1.90;;;;;;;16.71;100.00;101986.28;5631538;26;19999;-73
2024/04/18 08:08:51;;;;;;;5.82;2.65;;;;;;;16.30;100.00;101979.22;5625270;26;20446;-73
2024/04/18 08:11:21;;;;;;;11.02;2.70;;;;;;;16.18;100.00;101991.47;5629160;26;20325;-71
2024/04/18 08:13:52;;;;;;;6.72;2.83;;;;;;;16.29;100.00;101993.78;5629439;26;19995;-71
2024/04/18 08:16:22;;;;;;;5.63;2.47;;;;;;;16.48;100.00;101991.69;5626727;26;20019;-72
2024/04/18 08:18:53;;;;;;;6.30;2.33;;;;;;;16.41;100.00;101994.22;5618304;26;20010;-73
2024/04/18 08:21:24;;;;;;;5.80;1.77;;;;;;;16.77;100.00;101991.03;5627903;26;20335;-71
2024/04/18 08:23:56;;;;;;;7.38;2.20;;;;;;;16.89;100.00;102010.44;5630993;26;20428;-71
2024/04/18 08:26:28;;;;;;;5.45;1.80;;;;;;;16.30;100.00;102006.28;5625019;26;19999;-73
2024/04/18 08:28:58;;;;;;;7.13;2.17;;;;;;;15.90;100.00;102004.56;5628118;26;20003;-72
2024/04/18 08:31:34;;;;;;;6.13;1.92;;;;;;;15.89;100.00;102002.06;5624958;26;20006;-73
2024/04/18 08:34:04;;;;;;;3.63;1.63;;;;;;;16.02;100.00;102013.19;5628961;26;20014;-72
2024/04/18 08:36:35;;;;;;;6.72;1.77;;;;;;;15.93;100.00;102020.47;5625955;26;19998;-73
2024/04/18 08:39:05;;;;;;;4.80;1.65;;;;;;;15.46;100.00;102004.09;5626110;26;19999;-73
2024/04/18 08:41:36;;;;;;;6.22;1.83;;;;;;;15.48;100.00;102007.50;5624030;26;20436;-73
2024/04/18 08:44:06;;;;;;;6.43;1.70;;;;;;;15.77;100.00;102015.94;5633873;26;20569;-71
2024/04/18 08:46:37;;;;;;;6.97;1.83;;;;;;;15.86;100.00;102014.06;5627383;26;20452;-73
2024/04/18 08:49:10;;;;;;;6.97;1.77;;;;;;;15.82;100.00;102028.13;5632116;26;20022;-73
2024/04/18 08:51:43;;;;;;;6.50;2.00;;;;;;;15.43;100.00;102021.53;5629974;26;20009;-73
2024/04/18 08:54:14;;;;;;;3.40;1.50;;;;;;;14.99;100.00;102016.44;5632011;26;19995;-73
2024/04/18 08:56:49;;;;;;;6.78;2.88;;;;;;;14.52;100.00;102024.28;5631224;26;20445;-73
2024/04/18 08:59:20;;;;;;;4.95;1.73;;;;;;;14.39;100.00;102023.84;5632448;26;20309;-74
2024/04/18 09:01:51;;;;;;;8.13;2.35;;;;;;;14.32;100.00;102022.81;5631705;26;20018;-73
2024/04/18 09:04:21;;;;;;;7.70;2.72;;;;;;;14.93;100.00;102016.28;5632058;26;19995;-73
2024/04/18 09:06:52;;;;;;;6.82;1.65;;;;;;;15.55;100.00;102014.75;5633063;26;19999;-74
2024/04/18 09:09:23;;;;;;;5.45;1.80;;;;;;;15.84;100.00;102032.34;5631554;26;20402;-73
2024/04/18 09:11:53;;;;;;;6.10;2.10;;;;;;;15.96;100.00;102035.50;5630556;26;20010;-73
2024/04/18 09:14:26;;;;;;;3.63;1.80;;;;;;;15.85;100.00;102039.44;5632530;26;20131;-73
2024/04/18 09:16:56;;;;;;;13.32;2.10;;;;;;;15.45;100.00;102040.28;5632611;26;20027;-73
2024/04/18 09:19:27;;;;;;;3.38;1.45;;;;;;;14.97;100.00;102040.09;5630668;26;20003;-73
2024/04/18 09:21:59;;;;;;;8.35;2.60;;;;;;;15.15;100.00;102039.94;5631773;26;20325;-73
2024/04/18 09:24:30;;;;;;;7.32;1.77;;;;;;;15.55;100.00;102041.78;5633424;26;20007;-74
2024/04/18 09:27:01;;;;;;;4.70;1.75;;;;;;;16.26;100.00;102045.56;5630504;26;20016;-73
2024/04/18 09:29:31;;;;;;;7.97;1.50;;;;;;;17.07;100.00;102049.78;5631280;26;20010;-73
2024/04/18 09:32:03;;;;;;;3.38;1.63;;;;;;;17.72;100.00;102050.25;5630525;26;20003;-73
2024/04/18 09:34:34;;;;;;;6.00;1.40;;;;;;;17.54;100.00;102056.88;5631590;26;19995;-74
2024/04/18 09:37:10;;;;;;;4.93;1.40;;;;;;;17.02;100.00;102068.47;5630962;26;20003;-74
2024/04/18 09:39:43;;;;;;;5.60;1.55;;;;;;;16.17;100.00;102060.19;5627558;26;20369;-74
2024/04/18 09:42:22;;;;;;;6.60;1.33;;;;;;;15.63;100.00;102057.22;5625303;26;20006;-73
2024/04/18 09:44:54;;;;;;;6.40;2.00;;;;;;;15.47;100.00;102062.63;5628626;26;20010;-74
2024/04/18 09:47:26;;;;;;;4.25;1.65;;;;;;;15.72;100.00;102061.63;5631899;26;19999;-73
2024/04/18 09:49:58;;;;;;;6.38;1.67;;;;;;;15.88;100.00;102059.91;5628624;26;20436;-73
2024/04/18 09:52:30;;;;;;;6.90;1.35;;;;;;;15.90;100.00;102061.41;5629767;26;20017;-74
2024/04/18 09:55:02;;;;;;;6.78;1.70;;;;;;;15.68;100.00;102052.16;5632352;26;20018;-73
2024/04/18 09:57:35;;;;;;;7.28;1.30;;;;;;;15.52;100.00;102047.56;5631886;26;20007;-73
2024/04/18 10:00:06;;;;;;;4.88;1.30;;;;;;;15.72;100.00;102044.53;5630471;26;20072;-74
2024/04/18 10:02:37;;;;;;;5.20;1.60;;;;;;;16.02;100.00;102051.94;5621909;26;20425;-74
2024/04/18 10:05:08;;;;;;;7.75;1.98;;;;;;;16.11;100.00;102055.44;5631531;26;20017;-73
2024/04/18 10:07:40;;;;;;;3.85;1.30;;;;;;;15.93;100.00;102060.22;5631191;26;20003;-73
2024/04/18 10:10:11;;;;;;;5.90;1.38;;;;;;;15.36;100.00;102060.22;5631987;26;20013;-73
2024/04/18 10:12:42;;;;;;;3.10;0.73;;;;;;;14.92;100.00;102057.81;5631048;26;20009;-74
2024/04/18 10:15:18;;;;;;;5.25;1.38;;;;;;;14.54;100.00;102060.03;5629956;26;20011;-73
2024/04/18 10:17:49;;;;;;;3.35;1.02;;;;;;;14.16;100.00;102061.38;5631002;26;20071;-73
2024/04/18 10:20:27;;;;;;;3.53;1.60;;;;;;;13.91;100.00;102060.38;5623143;26;20026;-73
2024/04/18 10:23:00;;;;;;;3.90;1.40;;;;;;;14.06;100.00;102052.53;5627902;26;20007;-73
2024/04/18 10:25:38;;;;;;;5.45;1.50;;;;;;;14.56;100.00;102047.25;5631356;26;20030;-74
2024/04/18 10:28:20;;;;;;;8.13;1.30;;;;;;;15.11;100.00;102038.59;5629647;26;20364;-73
2024/04/18 10:30:51;;;;;;;8.50;1.30;;;;;;;15.58;100.00;102050.59;5629988;26;20021;-73
2024/04/18 10:33:28;;;;;;;4.45;1.50;;;;;;;15.76;100.00;102052.16;5632121;26;20014;-74
2024/04/18 10:35:59;;;;;;;7.07;1.02;;;;;;;15.77;100.00;102053.00;5626334;26;20003;-73
2024/04/18 10:38:29;;;;;;;6.80;1.70;;;;;;;15.83;100.00;102041.47;5630225;26;20021;-74
2024/04/18 10:41:00;;;;;;;2.55;1.20;;;;;;;15.66;100.00;102046.06;5622104;26;20042;-74
2024/04/18 10:43:33;;;;;;;3.58;1.38;;;;;;;15.36;100.00;102050.28;5632339;26;19999;-73
2024/04/18 10:46:07;;;;;;;4.47;1.40;;;;;;;15.09;100.00;102053.28;5614641;26;20317;-73
2024/04/18 10:48:37;;;;;;;6.13;1.10;;;;;;;14.84;100.00;102063.19;5620774;26;20771;-73
2024/04/18 10:51:08;;;;;;;4.05;1.20;;;;;;;14.67;100.00;102065.84;5629508;26;20035;-73
2024/04/18 10:53:38;;;;;;;6.30;1.05;;;;;;;14.37;100.00;102063.66;5632568;26;20006;-73
2024/04/18 10:56:09;;;;;;;8.73;1.20;;;;;;;14.32;100.00;102072.25;5629119;26;20143;-73
2024/04/18 10:58:40;;;;;;;4.95;1.10;;;;;;;14.31;100.00;102070.56;5629723;26;20018;-72
2024/04/18 11:01:18;;;;;;;8.25;1.52;;;;;;;14.31;100.00;102070.56;5625157;26;20007;-73
2024/04/18 11:03:56;;;;;;;6.50;3.95;;;;;;;14.29;100.00;102075.25;5629556;26;20006;-73
2024/04/18 11:06:26;;;;;;;3.72;1.10;;;;;;;14.20;100.00;102065.41;5628055;26;20007;-74
2024/04/18 11:09:00;;;;;;;6.13;1.20;;;;;;;13.96;100.00;102071.53;5630919;26;20032;-74
2024/04/18 11:11:33;;;;;;;6.28;1.20;;;;;;;13.63;100.00;102075.84;5623577;26;20007;-74
2024/04/18 11:14:04;;;;;;;4.43;1.15;;;;;;;13.46;100.00;102075.69;5625459;26;19999;-73
2024/04/18 11:16:34;;;;;;;2.47;1.27;;;;;;;13.39;100.00;102071.91;5624502;26;20018;-74
2024/04/18 11:19:05;;;;;;;4.50;1.55;;;;;;;13.65;100.00;102066.56;5627242;26;19999;-73
2024/04/18 11:21:36;;;;;;;6.40;1.67;;;;;;;14.32;100.00;102066.00;5625700;26;20047;-72
2024/04/18 11:24:09;;;;;;;4.55;1.55;;;;;;;15.18;100.00;102058.53;5626569;26;20018;-73
2024/04/18 11:26:40;;;;;;;4.22;1.48;;;;;;;15.84;100.00;102066.66;5629546;26;20006;-73
2024/04/18 11:29:10;;;;;;;5.07;1.20;;;;;;;15.91;100.00;102076.63;5625466;26;20039;-73
2024/04/18 11:31:40;;;;;;;8.63;1.73;;;;;;;15.65;100.00;102067.88;5625000;26;20003;-74